sensor_id;sensor_type;location;lat;lon;timestamp;temperature;humidity
69324;DHT22;56470;47.350;8.718;2022-10-16T00:02:25;16.10;80.97
69324;DHT22;56470;47.350;8.718;2022-10-16T00:04:51;16.12;80.92
69324;DHT22;56470;47.350;8.718;2022-10-16T00:07:16;16.08;80.84
69324;DHT22;56470;47.350;8.718;2022-10-16T00:09:45;16.04;80.76
69324;DHT22;56470;47.350;8.718;2022-10-16T00:12:11;15.97;80.86
69324;DHT22;56470;47.350;8.718;2022-10-16T00:14:37;15.92;80.92
69324;DHT22;56470;47.350;8.718;2022-10-16T00:17:03;15.88;81.01
69324;DHT22;56470;47.350;8.718;2022-10-16T00:19:28;15.82;81.10
69324;DHT22;56470;47.350;8.718;2022-10-16T00:21:58;15.82;81.20
69324;DHT22;56470;47.350;8.718;2022-10-16T00:24:29;15.87;81.37
69324;DHT22;56470;47.350;8.718;2022-10-16T00:27:00;15.90;81.51
69324;DHT22;56470;47.350;8.718;2022-10-16T00:29:34;15.91;81.44
69324;DHT22;56470;47.350;8.718;2022-10-16T00:32:20;15.88;81.30
69324;DHT22;56470;47.350;8.718;2022-10-16T00:35:03;15.85;81.10
69324;DHT22;56470;47.350;8.718;2022-10-16T00:37:29;15.75;81.28
69324;DHT22;56470;47.350;8.718;2022-10-16T00:39:55;15.71;81.48
69324;DHT22;56470;47.350;8.718;2022-10-16T00:42:23;15.73;81.62
69324;DHT22;56470;47.350;8.718;2022-10-16T00:44:59;15.78;81.82
69324;DHT22;56470;47.350;8.718;2022-10-16T00:47:36;15.88;81.72
69324;DHT22;56470;47.350;8.718;2022-10-16T00:50:28;15.97;81.64
69324;DHT22;56470;47.350;8.718;2022-10-16T00:53:00;16.04;81.61
69324;DHT22;56470;47.350;8.718;2022-10-16T00:55:27;16.04;81.65
69324;DHT22;56470;47.350;8.718;2022-10-16T00:57:57;16.10;81.54
69324;DHT22;56470;47.350;8.718;2022-10-16T01:00:28;16.12;81.26
69324;DHT22;56470;47.350;8.718;2022-10-16T01:02:57;16.08;81.06
69324;DHT22;56470;47.350;8.718;2022-10-16T01:05:30;16.01;81.03
69324;DHT22;56470;47.350;8.718;2022-10-16T01:08:11;15.92;81.22
69324;DHT22;56470;47.350;8.718;2022-10-16T01:13:32;15.94;81.26
69324;DHT22;56470;47.350;8.718;2022-10-16T01:16:05;15.92;81.29
69324;DHT22;56470;47.350;8.718;2022-10-16T01:18:37;15.88;81.29
69324;DHT22;56470;47.350;8.718;2022-10-16T01:21:26;15.82;81.55
69324;DHT22;56470;47.350;8.718;2022-10-16T01:29:42;15.88;81.36
69324;DHT22;56470;47.350;8.718;2022-10-16T01:32:20;15.91;81.36
69324;DHT22;56470;47.350;8.718;2022-10-16T01:34:57;15.97;81.25
69324;DHT22;56470;47.350;8.718;2022-10-16T01:37:43;16.01;81.22
69324;DHT22;56470;47.350;8.718;2022-10-16T01:40:14;16.05;81.23
69324;DHT22;56470;47.350;8.718;2022-10-16T01:43:03;16.08;81.22
69324;DHT22;56470;47.350;8.718;2022-10-16T01:45:34;16.13;81.15
69324;DHT22;56470;47.350;8.718;2022-10-16T01:48:02;16.15;81.07
69324;DHT22;56470;47.350;8.718;2022-10-16T01:50:38;16.20;81.05
69324;DHT22;56470;47.350;8.718;2022-10-16T01:53:13;16.25;80.93
69324;DHT22;56470;47.350;8.718;2022-10-16T01:55:43;16.22;80.95
69324;DHT22;56470;47.350;8.718;2022-10-16T01:58:13;16.22;80.76
69324;DHT22;56470;47.350;8.718;2022-10-16T02:00:44;16.15;80.74
69324;DHT22;56470;47.350;8.718;2022-10-16T02:03:20;16.12;80.88
69324;DHT22;56470;47.350;8.718;2022-10-16T02:06:28;16.09;81.09
69324;DHT22;56470;47.350;8.718;2022-10-16T02:08:57;16.10;80.85
69324;DHT22;56470;47.350;8.718;2022-10-16T02:11:25;16.04;80.84
69324;DHT22;56470;47.350;8.718;2022-10-16T02:14:06;15.91;81.12
69324;DHT22;56470;47.350;8.718;2022-10-16T02:16:47;15.85;81.21
69324;DHT22;56470;47.350;8.718;2022-10-16T02:19:27;15.82;81.49
69324;DHT22;56470;47.350;8.718;2022-10-16T02:22:05;15.82;81.33
69324;DHT22;56470;47.350;8.718;2022-10-16T02:24:55;15.81;81.43
69324;DHT22;56470;47.350;8.718;2022-10-16T02:30:58;15.80;81.59
69324;DHT22;56470;47.350;8.718;2022-10-16T02:33:29;15.84;81.37
69324;DHT22;56470;47.350;8.718;2022-10-16T02:36:21;15.85;81.39
69324;DHT22;56470;47.350;8.718;2022-10-16T02:38:54;15.91;81.37
69324;DHT22;56470;47.350;8.718;2022-10-16T02:41:28;15.90;81.27
69324;DHT22;56470;47.350;8.718;2022-10-16T02:44:12;15.78;81.28
69324;DHT22;56470;47.350;8.718;2022-10-16T02:46:41;15.77;81.40
69324;DHT22;56470;47.350;8.718;2022-10-16T02:49:07;15.70;81.44
69324;DHT22;56470;47.350;8.718;2022-10-16T02:51:42;15.61;81.57
69324;DHT22;56470;47.350;8.718;2022-10-16T02:54:10;15.47;81.80
69324;DHT22;56470;47.350;8.718;2022-10-16T02:56:35;15.35;82.09
69324;DHT22;56470;47.350;8.718;2022-10-16T02:59:01;15.29;82.31
69324;DHT22;56470;47.350;8.718;2022-10-16T03:01:48;15.29;82.28
69324;DHT22;56470;47.350;8.718;2022-10-16T03:04:21;15.35;82.17
69324;DHT22;56470;47.350;8.718;2022-10-16T03:07:27;15.33;82.33
69324;DHT22;56470;47.350;8.718;2022-10-16T03:10:58;15.40;82.19
69324;DHT22;56470;47.350;8.718;2022-10-16T03:14:27;15.50;82.29
69324;DHT22;56470;47.350;8.718;2022-10-16T03:17:11;15.63;82.01
69324;DHT22;56470;47.350;8.718;2022-10-16T03:20:21;15.70;81.44
69324;DHT22;56470;47.350;8.718;2022-10-16T03:23:03;15.64;81.40
69324;DHT22;56470;47.350;8.718;2022-10-16T03:25:44;15.65;81.34
69324;DHT22;56470;47.350;8.718;2022-10-16T03:32:17;15.67;81.07
69324;DHT22;56470;47.350;8.718;2022-10-16T03:35:26;15.73;81.46
69324;DHT22;56470;47.350;8.718;2022-10-16T03:38:16;15.80;81.32
69324;DHT22;56470;47.350;8.718;2022-10-16T03:41:19;15.91;81.23
69324;DHT22;56470;47.350;8.718;2022-10-16T03:43:47;15.91;81.14
69324;DHT22;56470;47.350;8.718;2022-10-16T03:46:29;15.91;80.99
69324;DHT22;56470;47.350;8.718;2022-10-16T03:48:59;15.85;80.67
69324;DHT22;56470;47.350;8.718;2022-10-16T03:51:29;15.75;80.65
69324;DHT22;56470;47.350;8.718;2022-10-16T03:54:02;15.65;80.74
69324;DHT22;56470;47.350;8.718;2022-10-16T03:57:14;15.64;80.72
69324;DHT22;56470;47.350;8.718;2022-10-16T03:59:40;15.60;80.72
69324;DHT22;56470;47.350;8.718;2022-10-16T04:02:20;15.53;80.75
69324;DHT22;56470;47.350;8.718;2022-10-16T04:04:58;15.47;80.75
69324;DHT22;56470;47.350;8.718;2022-10-16T04:08:16;15.39;80.98
69324;DHT22;56470;47.350;8.718;2022-10-16T04:11:15;15.35;80.76
69324;DHT22;56470;47.350;8.718;2022-10-16T04:13:48;15.25;80.89
69324;DHT22;56470;47.350;8.718;2022-10-16T04:16:23;15.18;81.06
69324;DHT22;56470;47.350;8.718;2022-10-16T04:19:06;15.11;81.13
69324;DHT22;56470;47.350;8.718;2022-10-16T04:21:35;15.06;81.31
69324;DHT22;56470;47.350;8.718;2022-10-16T04:24:07;14.95;81.36
69324;DHT22;56470;47.350;8.718;2022-10-16T04:27:03;14.92;81.79
69324;DHT22;56470;47.350;8.718;2022-10-16T04:29:37;14.95;81.63
69324;DHT22;56470;47.350;8.718;2022-10-16T04:32:30;14.96;81.82
69324;DHT22;56470;47.350;8.718;2022-10-16T04:35:31;15.03;81.76
69324;DHT22;56470;47.350;8.718;2022-10-16T04:38:44;15.13;81.57
69324;DHT22;56470;47.350;8.718;2022-10-16T04:41:45;15.22;81.45
69324;DHT22;56470;47.350;8.718;2022-10-16T04:44:51;15.32;81.21
69324;DHT22;56470;47.350;8.718;2022-10-16T04:47:42;15.40;81.14
69324;DHT22;56470;47.350;8.718;2022-10-16T04:50:29;15.42;81.00
69324;DHT22;56470;47.350;8.718;2022-10-16T04:52:58;15.47;80.96
69324;DHT22;56470;47.350;8.718;2022-10-16T04:55:30;15.47;80.76
69324;DHT22;56470;47.350;8.718;2022-10-16T04:58:02;15.43;80.64
69324;DHT22;56470;47.350;8.718;2022-10-16T05:00:34;15.35;80.57
69324;DHT22;56470;47.350;8.718;2022-10-16T05:03:19;15.29;80.67
69324;DHT22;56470;47.350;8.718;2022-10-16T05:05:55;15.26;80.78
69324;DHT22;56470;47.350;8.718;2022-10-16T05:09:05;15.23;80.88
69324;DHT22;56470;47.350;8.718;2022-10-16T05:12:17;15.23;80.80
69324;DHT22;56470;47.350;8.718;2022-10-16T05:14:59;15.22;80.84
69324;DHT22;56470;47.350;8.718;2022-10-16T05:21:00;15.26;80.65
69324;DHT22;56470;47.350;8.718;2022-10-16T05:24:08;15.16;80.53
69324;DHT22;56470;47.350;8.718;2022-10-16T05:26:41;15.12;80.69
69324;DHT22;56470;47.350;8.718;2022-10-16T05:30:06;15.03;80.83
69324;DHT22;56470;47.350;8.718;2022-10-16T05:33:10;14.96;80.90
69324;DHT22;56470;47.350;8.718;2022-10-16T05:35:40;14.94;81.00
69324;DHT22;56470;47.350;8.718;2022-10-16T05:38:14;14.89;81.07
69324;DHT22;56470;47.350;8.718;2022-10-16T05:41:49;14.94;81.16
69324;DHT22;56470;47.350;8.718;2022-10-16T05:44:46;15.06;81.26
69324;DHT22;56470;47.350;8.718;2022-10-16T05:47:24;15.11;81.03
69324;DHT22;56470;47.350;8.718;2022-10-16T05:49:56;15.20;81.03
69324;DHT22;56470;47.350;8.718;2022-10-16T05:52:25;15.22;80.88
69324;DHT22;56470;47.350;8.718;2022-10-16T05:54:52;15.28;80.81
69324;DHT22;56470;47.350;8.718;2022-10-16T05:57:46;15.28;80.86
69324;DHT22;56470;47.350;8.718;2022-10-16T06:00:19;15.40;80.81
69324;DHT22;56470;47.350;8.718;2022-10-16T06:03:13;15.42;80.55
69324;DHT22;56470;47.350;8.718;2022-10-16T06:05:56;15.46;80.35
69324;DHT22;56470;47.350;8.718;2022-10-16T06:08:28;15.51;80.30
69324;DHT22;56470;47.350;8.718;2022-10-16T06:11:21;15.49;80.05
69324;DHT22;56470;47.350;8.718;2022-10-16T06:14:15;15.56;80.30
69324;DHT22;56470;47.350;8.718;2022-10-16T06:17:07;15.58;80.20
69324;DHT22;56470;47.350;8.718;2022-10-16T06:19:47;15.64;80.14
69324;DHT22;56470;47.350;8.718;2022-10-16T06:22:56;15.68;80.08
69324;DHT22;56470;47.350;8.718;2022-10-16T06:25:33;15.70;79.99
69324;DHT22;56470;47.350;8.718;2022-10-16T06:28:17;15.70;79.58
69324;DHT22;56470;47.350;8.718;2022-10-16T06:30:59;15.70;79.53
69324;DHT22;56470;47.350;8.718;2022-10-16T06:33:25;15.71;79.59
69324;DHT22;56470;47.350;8.718;2022-10-16T06:35:56;15.71;79.50
69324;DHT22;56470;47.350;8.718;2022-10-16T06:38:24;15.74;79.49
69324;DHT22;56470;47.350;8.718;2022-10-16T06:40:50;15.61;79.15
69324;DHT22;56470;47.350;8.718;2022-10-16T06:43:15;15.57;79.31
69324;DHT22;56470;47.350;8.718;2022-10-16T06:45:40;15.50;79.58
69324;DHT22;56470;47.350;8.718;2022-10-16T06:48:06;15.46;79.74
69324;DHT22;56470;47.350;8.718;2022-10-16T06:50:31;15.39;79.99
69324;DHT22;56470;47.350;8.718;2022-10-16T06:52:57;15.40;80.23
69324;DHT22;56470;47.350;8.718;2022-10-16T06:55:22;15.43;80.19
69324;DHT22;56470;47.350;8.718;2022-10-16T06:57:48;15.40;80.20
69324;DHT22;56470;47.350;8.718;2022-10-16T07:00:14;15.39;80.20
69324;DHT22;56470;47.350;8.718;2022-10-16T07:02:39;15.42;80.06
69324;DHT22;56470;47.350;8.718;2022-10-16T07:05:05;15.49;80.02
69324;DHT22;56470;47.350;8.718;2022-10-16T07:07:30;15.53;79.79
69324;DHT22;56470;47.350;8.718;2022-10-16T07:09:55;15.53;79.78
69324;DHT22;56470;47.350;8.718;2022-10-16T07:12:21;15.60;79.85
69324;DHT22;56470;47.350;8.718;2022-10-16T07:14:46;15.70;79.85
69324;DHT22;56470;47.350;8.718;2022-10-16T07:17:11;15.75;79.74
69324;DHT22;56470;47.350;8.718;2022-10-16T07:19:36;15.81;79.67
69324;DHT22;56470;47.350;8.718;2022-10-16T07:22:02;15.87;79.74
69324;DHT22;56470;47.350;8.718;2022-10-16T07:24:28;15.94;79.53
69324;DHT22;56470;47.350;8.718;2022-10-16T07:26:53;15.99;79.37
69324;DHT22;56470;47.350;8.718;2022-10-16T07:29:21;15.94;79.07
69324;DHT22;56470;47.350;8.718;2022-10-16T07:31:47;15.85;79.10
69324;DHT22;56470;47.350;8.718;2022-10-16T07:34:14;15.85;79.34
69324;DHT22;56470;47.350;8.718;2022-10-16T07:36:40;15.88;79.37
69324;DHT22;56470;47.350;8.718;2022-10-16T07:39:05;15.88;79.33
69324;DHT22;56470;47.350;8.718;2022-10-16T07:41:31;15.90;79.30
69324;DHT22;56470;47.350;8.718;2022-10-16T07:43:58;15.91;79.18
69324;DHT22;56470;47.350;8.718;2022-10-16T07:46:25;15.91;79.08
69324;DHT22;56470;47.350;8.718;2022-10-16T07:48:51;15.88;78.94
69324;DHT22;56470;47.350;8.718;2022-10-16T07:51:19;15.88;78.89
69324;DHT22;56470;47.350;8.718;2022-10-16T07:53:45;15.84;78.98
69324;DHT22;56470;47.350;8.718;2022-10-16T07:56:11;15.82;79.03
69324;DHT22;56470;47.350;8.718;2022-10-16T07:58:36;15.88;79.23
69324;DHT22;56470;47.350;8.718;2022-10-16T08:01:10;15.92;79.29
69324;DHT22;56470;47.350;8.718;2022-10-16T08:03:36;16.02;79.32
69324;DHT22;56470;47.350;8.718;2022-10-16T08:06:02;16.09;79.35
69324;DHT22;56470;47.350;8.718;2022-10-16T08:08:28;16.13;79.57
69324;DHT22;56470;47.350;8.718;2022-10-16T08:10:54;16.19;79.71
69324;DHT22;56470;47.350;8.718;2022-10-16T08:13:20;16.32;79.71
69324;DHT22;56470;47.350;8.718;2022-10-16T08:15:45;16.40;79.73
69324;DHT22;56470;47.350;8.718;2022-10-16T08:18:12;16.59;79.86
69324;DHT22;56470;47.350;8.718;2022-10-16T08:20:38;16.78;79.63
69324;DHT22;56470;47.350;8.718;2022-10-16T08:23:04;17.08;79.24
69324;DHT22;56470;47.350;8.718;2022-10-16T08:25:29;17.39;78.52
69324;DHT22;56470;47.350;8.718;2022-10-16T08:27:55;17.60;77.73
69324;DHT22;56470;47.350;8.718;2022-10-16T08:30:25;17.85;77.22
69324;DHT22;56470;47.350;8.718;2022-10-16T08:32:50;17.99;76.02
69324;DHT22;56470;47.350;8.718;2022-10-16T08:35:16;18.02;76.08
69324;DHT22;56470;47.350;8.718;2022-10-16T08:37:42;18.08;75.55
69324;DHT22;56470;47.350;8.718;2022-10-16T08:40:17;18.15;75.14
69324;DHT22;56470;47.350;8.718;2022-10-16T08:50:57;18.43;74.27
69324;DHT22;56470;47.350;8.718;2022-10-16T08:53:40;18.43;72.84
69324;DHT22;56470;47.350;8.718;2022-10-16T08:56:08;18.60;73.74
69324;DHT22;56470;47.350;8.718;2022-10-16T08:58:33;18.68;73.44
69324;DHT22;56470;47.350;8.718;2022-10-16T09:01:04;18.77;72.16
69324;DHT22;56470;47.350;8.718;2022-10-16T09:06:28;19.02;71.55
69324;DHT22;56470;47.350;8.718;2022-10-16T09:08:58;19.15;70.63
69324;DHT22;56470;47.350;8.718;2022-10-16T09:11:45;19.19;69.69
69324;DHT22;56470;47.350;8.718;2022-10-16T09:14:34;19.27;70.19
69324;DHT22;56470;47.350;8.718;2022-10-16T09:19:59;19.46;69.43
69324;DHT22;56470;47.350;8.718;2022-10-16T09:22:30;19.53;69.95
69324;DHT22;56470;47.350;8.718;2022-10-16T09:25:00;19.51;69.67
69324;DHT22;56470;47.350;8.718;2022-10-16T09:27:26;19.58;70.00
69324;DHT22;56470;47.350;8.718;2022-10-16T09:29:51;19.64;69.69
69324;DHT22;56470;47.350;8.718;2022-10-16T09:32:22;19.68;69.41
69324;DHT22;56470;47.350;8.718;2022-10-16T09:34:53;19.81;69.14
69324;DHT22;56470;47.350;8.718;2022-10-16T09:37:22;20.05;69.34
69324;DHT22;56470;47.350;8.718;2022-10-16T09:39:51;20.22;69.11
69324;DHT22;56470;47.350;8.718;2022-10-16T09:42:18;20.39;68.99
69324;DHT22;56470;47.350;8.718;2022-10-16T09:44:47;20.53;68.14
69324;DHT22;56470;47.350;8.718;2022-10-16T09:47:19;20.51;67.37
69324;DHT22;56470;47.350;8.718;2022-10-16T09:50:04;20.58;66.08
69324;DHT22;56470;47.350;8.718;2022-10-16T09:52:32;20.68;67.37
69324;DHT22;56470;47.350;8.718;2022-10-16T09:55:12;20.78;67.15
69324;DHT22;56470;47.350;8.718;2022-10-16T09:57:48;20.96;66.75
69324;DHT22;56470;47.350;8.718;2022-10-16T10:00:16;21.09;66.37
69324;DHT22;56470;47.350;8.718;2022-10-16T10:02:42;21.13;66.17
69324;DHT22;56470;47.350;8.718;2022-10-16T10:05:20;21.18;64.85
69324;DHT22;56470;47.350;8.718;2022-10-16T10:07:57;21.25;65.19
69324;DHT22;56470;47.350;8.718;2022-10-16T10:10:28;21.27;64.56
69324;DHT22;56470;47.350;8.718;2022-10-16T10:12:54;21.39;65.30
69324;DHT22;56470;47.350;8.718;2022-10-16T10:15:21;21.40;65.34
69324;DHT22;56470;47.350;8.718;2022-10-16T10:17:51;21.46;65.06
69324;DHT22;56470;47.350;8.718;2022-10-16T10:20:26;21.39;64.60
69324;DHT22;56470;47.350;8.718;2022-10-16T10:22:52;21.39;65.15
69324;DHT22;56470;47.350;8.718;2022-10-16T10:25:30;21.30;65.21
69324;DHT22;56470;47.350;8.718;2022-10-16T10:28:14;21.30;64.16
69324;DHT22;56470;47.350;8.718;2022-10-16T10:41:15;21.42;64.46
69324;DHT22;56470;47.350;8.718;2022-10-16T10:52:02;21.49;63.76
69324;DHT22;56470;47.350;8.718;2022-10-16T10:54:40;21.44;63.81
69324;DHT22;56470;47.350;8.718;2022-10-16T10:57:21;21.42;62.63
69324;DHT22;56470;47.350;8.718;2022-10-16T11:05:27;21.40;63.56
69324;DHT22;56470;47.350;8.718;2022-10-16T11:08:08;21.35;63.53
69324;DHT22;56470;47.350;8.718;2022-10-16T11:10:44;21.23;63.00
69324;DHT22;56470;47.350;8.718;2022-10-16T11:13:20;21.18;62.49
69324;DHT22;56470;47.350;8.718;2022-10-16T11:15:48;21.23;63.33
69324;DHT22;56470;47.350;8.718;2022-10-16T11:18:19;21.22;62.96
69324;DHT22;56470;47.350;8.718;2022-10-16T11:20:56;21.19;61.97
69324;DHT22;56470;47.350;8.718;2022-10-16T11:26:12;21.19;62.73
69324;DHT22;56470;47.350;8.718;2022-10-16T11:28:45;21.12;62.78
69324;DHT22;56470;47.350;8.718;2022-10-16T11:31:24;20.96;62.66
69324;DHT22;56470;47.350;8.718;2022-10-16T11:34:07;20.94;63.11
69324;DHT22;56470;47.350;8.718;2022-10-16T11:36:57;20.91;62.96
69324;DHT22;56470;47.350;8.718;2022-10-16T11:39:26;20.90;63.70
69324;DHT22;56470;47.350;8.718;2022-10-16T11:47:27;20.82;63.12
69324;DHT22;56470;47.350;8.718;2022-10-16T11:49:59;20.80;62.92
69324;DHT22;56470;47.350;8.718;2022-10-16T11:52:33;20.82;63.00
69324;DHT22;56470;47.350;8.718;2022-10-16T11:55:20;20.81;61.06
69324;DHT22;56470;47.350;8.718;2022-10-16T11:57:54;20.82;62.07
69324;DHT22;56470;47.350;8.718;2022-10-16T12:00:45;20.87;60.78
69324;DHT22;56470;47.350;8.718;2022-10-16T12:05:55;20.94;62.71
69324;DHT22;56470;47.350;8.718;2022-10-16T12:08:22;20.95;62.60
69324;DHT22;56470;47.350;8.718;2022-10-16T12:10:48;20.91;62.58
69324;DHT22;56470;47.350;8.718;2022-10-16T12:18:42;20.84;61.32
69324;DHT22;56470;47.350;8.718;2022-10-16T12:21:09;20.84;61.05
69324;DHT22;56470;47.350;8.718;2022-10-16T12:26:14;20.90;61.11
69324;DHT22;56470;47.350;8.718;2022-10-16T12:28:48;20.88;60.98
69324;DHT22;56470;47.350;8.718;2022-10-16T12:31:16;20.88;60.73
69324;DHT22;56470;47.350;8.718;2022-10-16T12:33:57;20.91;59.19
69324;DHT22;56470;47.350;8.718;2022-10-16T12:36:32;20.98;60.74
69324;DHT22;56470;47.350;8.718;2022-10-16T12:38:58;21.02;60.97
69324;DHT22;56470;47.350;8.718;2022-10-16T12:41:30;21.09;60.84
69324;DHT22;56470;47.350;8.718;2022-10-16T12:43:56;21.10;61.07
69324;DHT22;56470;47.350;8.718;2022-10-16T12:46:36;21.05;60.54
69324;DHT22;56470;47.350;8.718;2022-10-16T12:51:37;21.02;61.31
69324;DHT22;56470;47.350;8.718;2022-10-16T12:54:15;20.99;60.62
69324;DHT22;56470;47.350;8.718;2022-10-16T12:57:04;20.98;59.88
69324;DHT22;56470;47.350;8.718;2022-10-16T13:03:08;20.99;60.27
69324;DHT22;56470;47.350;8.718;2022-10-16T13:08:39;20.99;59.86
69324;DHT22;56470;47.350;8.718;2022-10-16T13:11:10;21.01;60.22
69324;DHT22;56470;47.350;8.718;2022-10-16T13:21:53;21.06;59.59
69324;DHT22;56470;47.350;8.718;2022-10-16T13:24:55;21.05;58.00
69324;DHT22;56470;47.350;8.718;2022-10-16T13:30:14;21.09;58.86
69324;DHT22;56470;47.350;8.718;2022-10-16T13:32:44;21.15;59.99
69324;DHT22;56470;47.350;8.718;2022-10-16T13:35:29;21.10;58.96
69324;DHT22;56470;47.350;8.718;2022-10-16T13:38:24;21.12;59.41
69324;DHT22;56470;47.350;8.718;2022-10-16T13:40:57;21.13;60.17
69324;DHT22;56470;47.350;8.718;2022-10-16T13:43:34;21.10;59.45
69324;DHT22;56470;47.350;8.718;2022-10-16T13:46:05;21.13;60.00
69324;DHT22;56470;47.350;8.718;2022-10-16T13:48:33;21.16;60.08
69324;DHT22;56470;47.350;8.718;2022-10-16T13:51:18;21.15;59.19
69324;DHT22;56470;47.350;8.718;2022-10-16T13:53:44;21.19;60.19
69324;DHT22;56470;47.350;8.718;2022-10-16T13:56:18;21.15;60.03
69324;DHT22;56470;47.350;8.718;2022-10-16T13:58:45;21.18;60.56
69324;DHT22;56470;47.350;8.718;2022-10-16T14:01:17;21.20;60.65
69324;DHT22;56470;47.350;8.718;2022-10-16T14:03:45;21.22;61.03
69324;DHT22;56470;47.350;8.718;2022-10-16T14:06:13;21.23;61.25
69324;DHT22;56470;47.350;8.718;2022-10-16T14:08:43;21.26;61.35
69324;DHT22;56470;47.350;8.718;2022-10-16T14:11:09;21.29;61.25
69324;DHT22;56470;47.350;8.718;2022-10-16T14:13:40;21.27;61.31
69324;DHT22;56470;47.350;8.718;2022-10-16T14:16:18;21.30;61.58
69324;DHT22;56470;47.350;8.718;2022-10-16T14:19:05;21.32;61.73
69324;DHT22;56470;47.350;8.718;2022-10-16T14:21:32;21.30;62.40
69324;DHT22;56470;47.350;8.718;2022-10-16T14:23:58;21.33;62.68
69324;DHT22;56470;47.350;8.718;2022-10-16T14:26:26;21.35;62.97
69324;DHT22;56470;47.350;8.718;2022-10-16T14:29:12;21.35;62.95
69324;DHT22;56470;47.350;8.718;2022-10-16T14:31:38;21.36;62.77
69324;DHT22;56470;47.350;8.718;2022-10-16T14:34:32;21.37;62.85
69324;DHT22;56470;47.350;8.718;2022-10-16T14:37:09;21.40;63.96
69324;DHT22;56470;47.350;8.718;2022-10-16T14:39:39;21.42;64.03
69324;DHT22;56470;47.350;8.718;2022-10-16T14:42:14;21.37;65.00
69324;DHT22;56470;47.350;8.718;2022-10-16T14:44:41;21.37;64.66
69324;DHT22;56470;47.350;8.718;2022-10-16T14:47:09;21.39;64.78
69324;DHT22;56470;47.350;8.718;2022-10-16T14:49:37;21.36;64.89
69324;DHT22;56470;47.350;8.718;2022-10-16T14:52:08;21.35;65.01
69324;DHT22;56470;47.350;8.718;2022-10-16T14:54:33;21.35;65.01
69324;DHT22;56470;47.350;8.718;2022-10-16T14:56:59;21.33;65.19
69324;DHT22;56470;47.350;8.718;2022-10-16T14:59:35;21.35;65.96
69324;DHT22;56470;47.350;8.718;2022-10-16T15:02:23;21.29;66.14
69324;DHT22;56470;47.350;8.718;2022-10-16T15:04:50;21.30;65.85
69324;DHT22;56470;47.350;8.718;2022-10-16T15:07:15;21.29;66.04
69324;DHT22;56470;47.350;8.718;2022-10-16T15:09:40;21.32;66.10
69324;DHT22;56470;47.350;8.718;2022-10-16T15:12:06;21.27;66.24
69324;DHT22;56470;47.350;8.718;2022-10-16T15:14:31;21.29;66.56
69324;DHT22;56470;47.350;8.718;2022-10-16T15:16:57;21.32;66.78
69324;DHT22;56470;47.350;8.718;2022-10-16T15:19:22;21.33;66.99
69324;DHT22;56470;47.350;8.718;2022-10-16T15:21:48;21.32;67.10
69324;DHT22;56470;47.350;8.718;2022-10-16T15:24:15;21.35;67.24
69324;DHT22;56470;47.350;8.718;2022-10-16T15:26:40;21.33;67.37
69324;DHT22;56470;47.350;8.718;2022-10-16T15:29:06;21.32;67.51
69324;DHT22;56470;47.350;8.718;2022-10-16T15:31:32;21.27;67.54
69324;DHT22;56470;47.350;8.718;2022-10-16T15:33:57;21.29;67.66
69324;DHT22;56470;47.350;8.718;2022-10-16T15:36:33;21.29;67.66
69324;DHT22;56470;47.350;8.718;2022-10-16T15:39:12;21.27;67.84
69324;DHT22;56470;47.350;8.718;2022-10-16T15:41:38;21.26;67.84
69324;DHT22;56470;47.350;8.718;2022-10-16T15:44:03;21.29;68.02
69324;DHT22;56470;47.350;8.718;2022-10-16T15:46:28;21.27;68.04
69324;DHT22;56470;47.350;8.718;2022-10-16T15:48:57;21.26;68.14
69324;DHT22;56470;47.350;8.718;2022-10-16T15:51:23;21.25;68.39
69324;DHT22;56470;47.350;8.718;2022-10-16T15:53:49;21.22;68.34
69324;DHT22;56470;47.350;8.718;2022-10-16T15:56:15;21.22;68.33
69324;DHT22;56470;47.350;8.718;2022-10-16T15:58:42;21.19;68.31
69324;DHT22;56470;47.350;8.718;2022-10-16T16:01:07;21.19;68.26
69324;DHT22;56470;47.350;8.718;2022-10-16T16:03:36;21.16;68.22
69324;DHT22;56470;47.350;8.718;2022-10-16T16:06:06;21.10;68.30
69324;DHT22;56470;47.350;8.718;2022-10-16T16:08:32;21.10;68.42
69324;DHT22;56470;47.350;8.718;2022-10-16T16:11:08;21.06;68.53
69324;DHT22;56470;47.350;8.718;2022-10-16T16:13:34;21.05;68.74
69324;DHT22;56470;47.350;8.718;2022-10-16T16:16:05;21.01;68.87
69324;DHT22;56470;47.350;8.718;2022-10-16T16:18:30;21.01;68.93
69324;DHT22;56470;47.350;8.718;2022-10-16T16:20:56;20.98;69.01
69324;DHT22;56470;47.350;8.718;2022-10-16T16:23:22;20.99;69.09
69324;DHT22;56470;47.350;8.718;2022-10-16T16:26:12;20.99;69.39
69324;DHT22;56470;47.350;8.718;2022-10-16T16:28:38;20.98;69.08
69324;DHT22;56470;47.350;8.718;2022-10-16T16:31:04;20.96;69.16
69324;DHT22;56470;47.350;8.718;2022-10-16T16:33:30;20.88;69.24
69324;DHT22;56470;47.350;8.718;2022-10-16T16:36:03;20.88;69.34
69324;DHT22;56470;47.350;8.718;2022-10-16T16:38:29;20.85;69.42
69324;DHT22;56470;47.350;8.718;2022-10-16T16:40:55;20.87;69.52
69324;DHT22;56470;47.350;8.718;2022-10-16T16:43:29;20.78;69.73
69324;DHT22;56470;47.350;8.718;2022-10-16T16:45:55;20.80;69.64
69324;DHT22;56470;47.350;8.718;2022-10-16T16:48:21;20.75;69.76
69324;DHT22;56470;47.350;8.718;2022-10-16T16:50:46;20.74;69.86
69324;DHT22;56470;47.350;8.718;2022-10-16T16:53:12;20.70;69.97
69324;DHT22;56470;47.350;8.718;2022-10-16T16:55:37;20.67;70.11
69324;DHT22;56470;47.350;8.718;2022-10-16T16:58:03;20.64;70.25
69324;DHT22;56470;47.350;8.718;2022-10-16T17:00:29;20.63;70.42
69324;DHT22;56470;47.350;8.718;2022-10-16T17:02:56;20.60;70.64
69324;DHT22;56470;47.350;8.718;2022-10-16T17:05:21;20.57;70.82
69324;DHT22;56470;47.350;8.718;2022-10-16T17:07:46;20.54;71.01
69324;DHT22;56470;47.350;8.718;2022-10-16T17:10:12;20.53;71.20
69324;DHT22;56470;47.350;8.718;2022-10-16T17:12:37;20.51;71.33
69324;DHT22;56470;47.350;8.718;2022-10-16T17:15:03;20.44;71.81
69324;DHT22;56470;47.350;8.718;2022-10-16T17:17:28;20.39;72.29
69324;DHT22;56470;47.350;8.718;2022-10-16T17:19:53;20.33;72.56
69324;DHT22;56470;47.350;8.718;2022-10-16T17:22:19;20.30;72.79
69324;DHT22;56470;47.350;8.718;2022-10-16T17:24:47;20.25;73.09
69324;DHT22;56470;47.350;8.718;2022-10-16T17:27:14;20.22;73.24
69324;DHT22;56470;47.350;8.718;2022-10-16T17:29:40;20.18;73.55
69324;DHT22;56470;47.350;8.718;2022-10-16T17:32:05;20.11;73.70
69324;DHT22;56470;47.350;8.718;2022-10-16T17:34:31;20.08;73.84
69324;DHT22;56470;47.350;8.718;2022-10-16T17:36:56;20.09;73.91
69324;DHT22;56470;47.350;8.718;2022-10-16T17:39:21;20.06;74.04
69324;DHT22;56470;47.350;8.718;2022-10-16T17:41:47;20.04;74.09
69324;DHT22;56470;47.350;8.718;2022-10-16T17:44:14;20.01;74.31
69324;DHT22;56470;47.350;8.718;2022-10-16T17:46:45;19.96;74.60
69324;DHT22;56470;47.350;8.718;2022-10-16T17:49:11;19.92;74.56
69324;DHT22;56470;47.350;8.718;2022-10-16T17:51:37;19.81;74.58